Time;durP1;ratioP1;P1;durP2;ratioP2;P2;SDS_P1;SDS_P2;PMS_P1;PMS_P2;Temp;Humidity;BMP_temperature;BMP_pressure;BME280_temperature;BME280_humidity;BME280_pressure;Samples;Min_cycle;Max_cycle;Signal;HPM_P1;HPM_P2
2022/09/03 00:01:46;;;;;;;14.68;9.07;;;21.20;76.70;;;;;;6166667;23;20033;-87
2022/09/03 00:04:18;;;;;;;14.63;9.02;;;21.10;76.90;;;;;;6162882;23;20148;-87
2022/09/03 00:06:59;;;;;;;13.13;8.68;;;21.10;76.90;;;;;;6192758;23;20345;-89
2022/09/03 00:09:41;;;;;;;13.80;8.55;;;21.00;77.20;;;;;;6162707;23;20450;-87
2022/09/03 00:12:23;;;;;;;12.10;8.10;;;21.00;77.30;;;;;;6166086;23;20015;-89
2022/09/03 00:14:57;;;;;;;16.88;9.13;;;21.00;77.30;;;;;;6163186;23;20112;-87
2022/09/03 00:17:35;;;;;;;10.57;7.28;;;21.00;77.70;;;;;;6166086;23;20009;-87
2022/09/03 00:20:06;;;;;;;11.00;7.32;;;21.00;77.60;;;;;;6140274;23;20052;-87
2022/09/03 00:22:48;;;;;;;9.90;6.78;;;21.00;78.00;;;;;;6189008;23;19997;-89
2022/09/03 00:25:21;;;;;;;11.98;7.50;;;21.00;78.00;;;;;;6164920;23;20008;-88
2022/09/03 00:27:53;;;;;;;10.70;7.10;;;21.10;78.00;;;;;;6189194;23;20008;-88
2022/09/03 00:30:21;;;;;;;9.90;7.35;;;21.00;78.00;;;;;;6166142;23;20009;-88
2022/09/03 00:32:53;;;;;;;10.25;6.55;;;21.00;77.80;;;;;;6162484;23;20028;-89
2022/09/03 00:35:28;;;;;;;12.60;6.95;;;21.00;78.20;;;;;;6167670;23;20021;-88
2022/09/03 00:37:54;;;;;;;11.25;7.40;;;21.00;78.40;;;;;;6162694;23;20005;-87
2022/09/03 00:40:34;;;;;;;13.90;7.82;;;20.90;78.30;;;;;;6166038;23;20005;-87
2022/09/03 00:43:33;;;;;;;12.13;6.55;;;21.00;78.30;;;;;;6162591;23;20591;-88
2022/09/03 00:46:09;;;;;;;11.50;7.32;;;21.10;78.00;;;;;;6185823;23;20349;-88
2022/09/03 00:49:04;;;;;;;10.07;7.00;;;21.10;78.30;;;;;;6162257;23;20012;-88
2022/09/03 00:52:15;;;;;;;9.60;7.28;;;21.00;78.40;;;;;;6165467;23;20013;-88
2022/09/03 00:54:56;;;;;;;11.60;7.85;;;21.00;78.10;;;;;;6152047;23;20029;-88
2022/09/03 00:58:02;;;;;;;13.77;8.55;;;21.10;77.80;;;;;;6166032;23;20005;-89
2022/09/03 01:00:28;;;;;;;11.82;8.65;;;21.10;78.10;;;;;;6119606;23;20013;-89
2022/09/03 01:03:11;;;;;;;15.13;9.25;;;21.00;78.00;;;;;;6191704;23;20005;-88
2022/09/03 01:05:58;;;;;;;12.13;8.25;;;21.00;78.10;;;;;;6162998;23;20013;-88
2022/09/03 01:09:23;;;;;;;14.50;9.07;;;21.00;78.10;;;;;;6163755;23;20001;-88
2022/09/03 01:12:01;;;;;;;13.35;8.43;;;21.00;78.00;;;;;;6082346;23;20005;-88
2022/09/03 01:14:40;;;;;;;14.60;8.10;;;21.00;77.80;;;;;;6192829;23;20005;-87
2022/09/03 01:17:12;;;;;;;16.20;8.98;;;21.00;78.10;;;;;;6188248;23;20430;-88
2022/09/03 01:20:03;;;;;;;14.13;9.38;;;21.00;77.80;;;;;;6163360;23;20457;-89
2022/09/03 01:22:50;;;;;;;14.57;8.80;;;21.00;77.80;;;;;;6163277;23;20005;-88
2022/09/03 01:25:30;;;;;;;11.85;8.20;;;21.00;77.70;;;;;;6163180;23;20012;-89
2022/09/03 01:28:12;;;;;;;12.68;8.80;;;21.10;77.80;;;;;;6162774;23;20012;-89
2022/09/03 01:30:46;;;;;;;14.93;7.78;;;21.00;77.90;;;;;;6162456;23;20452;-88
2022/09/03 01:33:39;;;;;;;12.43;7.75;;;21.00;78.10;;;;;;6165830;23;20008;-89
2022/09/03 01:36:23;;;;;;;13.00;8.90;;;21.00;78.30;;;;;;6188795;23;20377;-88
2022/09/03 01:38:54;;;;;;;12.40;7.85;;;21.00;77.90;;;;;;6166847;23;20400;-90
2022/09/03 01:42:32;;;;;;;13.95;8.48;;;21.10;78.10;;;;;;6162398;23;20009;-88
2022/09/03 01:45:21;;;;;;;12.57;8.55;;;21.00;78.30;;;;;;6017942;23;20008;-88
2022/09/03 01:48:18;;;;;;;14.52;8.88;;;21.00;78.40;;;;;;6161759;23;20065;-88
2022/09/03 01:50:58;;;;;;;14.77;9.05;;;21.00;78.40;;;;;;6123168;23;20067;-89
2022/09/03 01:53:33;;;;;;;12.95;8.65;;;21.00;78.10;;;;;;6162232;23;20013;-89
2022/09/03 01:56:33;;;;;;;14.82;9.57;;;21.10;78.00;;;;;;6166423;23;20013;-88
2022/09/03 01:59:42;;;;;;;12.90;8.35;;;21.00;78.40;;;;;;6162307;23;20044;-88
2022/09/03 02:02:18;;;;;;;12.70;9.02;;;21.00;78.40;;;;;;6188905;23;20079;-88
2022/09/03 02:05:28;;;;;;;15.23;9.15;;;21.00;78.30;;;;;;6187856;23;20004;-89
2022/09/03 02:08:00;;;;;;;13.05;9.05;;;21.00;77.90;;;;;;6189537;23;20028;-89
2022/09/03 02:10:31;;;;;;;13.45;8.88;;;21.00;78.10;;;;;;6162465;23;20009;-89
2022/09/03 02:13:05;;;;;;;12.80;8.88;;;21.10;78.10;;;;;;6192225;23;20001;-88
2022/09/03 02:15:33;;;;;;;15.65;9.55;;;21.00;78.10;;;;;;6162576;23;20051;-88
2022/09/03 02:18:02;;;;;;;16.23;9.05;;;21.00;78.20;;;;;;6165805;23;20080;-89
2022/09/03 02:20:29;;;;;;;13.40;8.80;;;21.00;78.20;;;;;;6162358;23;20080;-88
2022/09/03 02:22:57;;;;;;;16.48;10.27;;;21.00;78.30;;;;;;6190491;23;19997;-88
2022/09/03 02:25:28;;;;;;;15.30;10.38;;;21.00;78.20;;;;;;6162386;23;20009;-88
2022/09/03 02:28:19;;;;;;;18.27;10.32;;;21.00;78.30;;;;;;6189132;23;20325;-87
2022/09/03 02:30:44;;;;;;;14.30;10.77;;;21.00;78.00;;;;;;6189492;23;20001;-89
2022/09/03 02:33:10;;;;;;;17.80;11.00;;;20.90;78.30;;;;;;6162411;23;20437;-89
2022/09/03 02:35:36;;;;;;;16.60;10.55;;;20.90;78.50;;;;;;6166438;23;20452;-88
2022/09/03 02:38:27;;;;;;;19.15;10.52;;;20.90;78.60;;;;;;6161178;23;20017;-89
2022/09/03 02:40:53;;;;;;;16.27;10.50;;;20.90;78.60;;;;;;6164760;23;20005;-88
2022/09/03 02:43:26;;;;;;;17.83;10.18;;;20.90;78.40;;;;;;6161889;23;20001;-89
2022/09/03 02:45:57;;;;;;;14.35;10.13;;;21.00;78.00;;;;;;6192294;23;20001;-89
2022/09/03 02:48:24;;;;;;;16.83;10.30;;;20.90;78.30;;;;;;6188555;23;20028;-90
2022/09/03 02:50:52;;;;;;;18.35;10.98;;;20.90;78.50;;;;;;6163090;23;20449;-88
2022/09/03 02:53:18;;;;;;;18.92;11.00;;;20.90;78.50;;;;;;6189770;23;20017;-88
2022/09/03 02:55:45;;;;;;;17.70;11.30;;;20.90;78.50;;;;;;6187736;23;20029;-89
2022/09/03 02:58:11;;;;;;;15.88;11.75;;;20.90;78.60;;;;;;6190933;23;20020;-88
2022/09/03 03:00:37;;;;;;;18.70;12.27;;;20.80;78.70;;;;;;6162227;23;20422;-88
2022/09/03 03:03:03;;;;;;;17.80;11.80;;;20.90;78.70;;;;;;6167987;23;20012;-88
2022/09/03 03:05:42;;;;;;;18.40;12.15;;;20.90;78.40;;;;;;6164433;23;20001;-89
2022/09/03 03:08:13;;;;;;;21.58;12.88;;;20.90;78.60;;;;;;6166262;23;20005;-90
2022/09/03 03:10:41;;;;;;;21.10;13.13;;;20.90;78.60;;;;;;6164416;23;20032;-89
2022/09/03 03:13:07;;;;;;;19.55;12.65;;;20.90;78.50;;;;;;6164071;23;20338;-89
2022/09/03 03:15:33;;;;;;;20.33;13.32;;;20.90;78.40;;;;;;6167592;23;20009;-88
2022/09/03 03:17:58;;;;;;;20.92;13.55;;;20.80;78.70;;;;;;6189458;23;20076;-89
2022/09/03 03:20:24;;;;;;;20.83;13.55;;;20.80;78.70;;;;;;6168118;23;20059;-88
2022/09/03 03:22:50;;;;;;;22.20;13.98;;;20.80;78.90;;;;;;6189935;23;20108;-88
2022/09/03 03:25:16;;;;;;;23.27;14.55;;;20.90;79.10;;;;;;6192460;23;20001;-88
2022/09/03 03:27:42;;;;;;;22.00;12.93;;;20.80;79.10;;;;;;6191194;23;19997;-88
2022/09/03 03:30:09;;;;;;;24.55;14.57;;;20.80;79.10;;;;;;6163899;23;20009;-89
2022/09/03 03:32:36;;;;;;;20.45;13.18;;;20.80;78.70;;;;;;6167204;23;20339;-88
2022/09/03 03:35:02;;;;;;;22.77;13.95;;;20.80;78.90;;;;;;6190172;23;20012;-88
2022/09/03 03:37:27;;;;;;;21.90;14.45;;;20.80;78.70;;;;;;6167016;23;20005;-89
2022/09/03 03:39:53;;;;;;;20.63;13.05;;;20.80;78.60;;;;;;6163292;23;20016;-88
2022/09/03 03:42:21;;;;;;;23.90;14.45;;;20.80;78.90;;;;;;6166186;23;20005;-88
2022/09/03 03:44:47;;;;;;;17.08;10.20;;;20.80;79.00;;;;;;6164083;23;20005;-89
2022/09/03 03:47:15;;;;;;;14.68;8.82;;;20.80;79.40;;;;;;6189212;23;20514;-89
2022/09/03 03:49:42;;;;;;;12.25;8.18;;;20.70;79.90;;;;;;6167641;23;20009;-89
2022/09/03 03:52:08;;;;;;;14.70;8.02;;;20.60;80.20;;;;;;6189467;23;20032;-88
2022/09/03 03:54:33;;;;;;;15.05;7.63;;;20.60;80.20;;;;;;6193780;23;20017;-88
2022/09/03 03:56:59;;;;;;;11.80;7.35;;;20.60;80.40;;;;;;6189210;23;20001;-90
2022/09/03 03:59:30;;;;;;;13.10;7.97;;;20.60;81.10;;;;;;6166787;23;20001;-90
2022/09/03 04:01:55;;;;;;;9.70;6.13;;;20.50;82.30;;;;;;6163832;23;20012;-89
2022/09/03 04:04:21;;;;;;;8.85;5.38;;;20.50;82.40;;;;;;6163720;23;20001;-88
2022/09/03 04:06:47;;;;;;;11.80;6.28;;;20.50;81.90;;;;;;6193345;23;20012;-90
2022/09/03 04:09:12;;;;;;;12.80;7.30;;;20.50;81.90;;;;;;6163458;23;20013;-90
2022/09/03 04:11:38;;;;;;;15.38;9.25;;;20.60;81.50;;;;;;6167754;23;20005;-90
2022/09/03 04:14:04;;;;;;;16.80;9.13;;;20.50;81.70;;;;;;6188920;23;20009;-88
2022/09/03 04:16:31;;;;;;;21.10;10.43;;;20.50;82.10;;;;;;6192496;23;19997;-89
2022/09/03 04:18:57;;;;;;;27.33;11.18;;;20.40;82.30;;;;;;6163950;23;20032;-89
2022/09/03 04:21:25;;;;;;;27.10;11.38;;;20.40;82.30;;;;;;6163454;23;20059;-89
2022/09/03 04:23:52;;;;;;;23.65;10.98;;;20.50;82.20;;;;;;6193395;23;20005;-89
2022/09/03 04:26:21;;;;;;;31.02;14.27;;;20.50;82.00;;;;;;6163893;23;20001;-88
2022/09/03 04:28:47;;;;;;;34.05;14.93;;;20.50;82.10;;;;;;6191975;23;20012;-89
2022/09/03 04:31:14;;;;;;;27.00;14.35;;;20.40;82.30;;;;;;6162883;23;20005;-89
2022/09/03 04:33:42;;;;;;;32.63;15.20;;;20.30;82.80;;;;;;6167193;23;20435;-91
2022/09/03 04:36:12;;;;;;;29.65;14.30;;;20.30;83.10;;;;;;6163389;23;20005;-90
2022/09/03 04:38:41;;;;;;;33.60;16.52;;;20.30;82.80;;;;;;6162958;23;20031;-88
2022/09/03 04:41:09;;;;;;;28.92;14.63;;;20.30;82.50;;;;;;6162961;23;20005;-90
2022/09/03 04:43:35;;;;;;;32.28;14.95;;;20.30;82.70;;;;;;6164831;23;20012;-92
2022/09/03 04:46:05;;;;;;;27.27;14.82;;;20.40;82.60;;;;;;6193562;23;20086;-89
2022/09/03 04:48:32;;;;;;;27.35;13.60;;;20.40;82.90;;;;;;6163107;23;20009;-89
2022/09/03 04:51:10;;;;;;;27.95;13.40;;;20.30;83.50;;;;;;6166703;23;20005;-89
2022/09/03 04:53:38;;;;;;;19.55;9.63;;;20.30;83.60;;;;;;6157045;23;20017;-88
2022/09/03 04:56:28;;;;;;;16.02;8.07;;;20.20;84.30;;;;;;6161127;23;20005;-88
2022/09/03 04:59:00;;;;;;;13.90;6.63;;;20.10;86.20;;;;;;6158569;23;20074;-88
2022/09/03 05:01:28;;;;;;;13.35;7.00;;;20.00;85.80;;;;;;6158799;23;20001;-88
2022/09/03 05:03:58;;;;;;;11.10;4.88;;;20.00;85.70;;;;;;6161865;23;20009;-85
2022/09/03 05:06:24;;;;;;;12.57;6.22;;;19.90;84.20;;;;;;6156960;23;20002;-87
2022/09/03 05:08:51;;;;;;;15.15;6.38;;;19.90;85.40;;;;;;6162899;23;20381;-89
2022/09/03 05:11:18;;;;;;;17.95;6.68;;;19.90;85.40;;;;;;6156001;23;20010;-89
2022/09/03 05:13:52;;;;;;;11.32;5.72;;;19.90;84.80;;;;;;6161398;23;20013;-89
2022/09/03 05:16:19;;;;;;;15.25;5.93;;;19.90;84.70;;;;;;6156018;23;20435;-88
2022/09/03 05:18:56;;;;;;;13.50;6.05;;;19.80;85.00;;;;;;6157808;23;20001;-89
2022/09/03 05:21:22;;;;;;;11.98;5.28;;;19.90;85.10;;;;;;6160184;23;20002;-89
2022/09/03 05:23:49;;;;;;;17.23;6.38;;;19.90;85.80;;;;;;6154484;23;20312;-87
2022/09/03 05:26:18;;;;;;;18.33;7.75;;;19.90;85.70;;;;;;6160535;23;20013;-90
2022/09/03 05:28:44;;;;;;;30.23;13.40;;;19.90;84.60;;;;;;6156477;23;20076;-89
2022/09/03 05:31:18;;;;;;;56.85;20.65;;;19.90;84.60;;;;;;6160517;23;20128;-89
2022/09/03 05:33:46;;;;;;;36.45;14.18;;;19.90;84.90;;;;;;6153187;23;20096;-87
2022/09/03 05:36:22;;;;;;;43.17;15.88;;;20.00;84.40;;;;;;6155382;23;20001;-89
2022/09/03 05:38:49;;;;;;;54.85;20.70;;;20.00;84.40;;;;;;6155192;23;20039;-84
2022/09/03 05:41:16;;;;;;;67.88;25.95;;;20.00;83.90;;;;;;6153536;23;20005;-88
2022/09/03 05:43:42;;;;;;;68.78;26.17;;;20.10;84.00;;;;;;6155345;23;20008;-86
2022/09/03 05:46:10;;;;;;;63.33;26.20;;;20.10;83.80;;;;;;6155371;23;20025;-91
2022/09/03 05:48:37;;;;;;;79.10;29.02;;;20.00;84.20;;;;;;6159028;23;20001;-86
2022/09/03 05:51:15;;;;;;;89.65;31.75;;;20.00;84.10;;;;;;6156907;23;20442;-87
2022/09/03 05:53:41;;;;;;;86.85;32.53;;;20.00;83.80;;;;;;6156804;23;20031;-88
2022/09/03 05:56:12;;;;;;;98.70;34.05;;;20.00;84.10;;;;;;6157768;23;20344;-87
2022/09/03 05:58:42;;;;;;;90.90;33.55;;;20.10;83.90;;;;;;6156683;23;20043;-89
2022/09/03 06:01:48;;;;;;;72.97;29.02;;;20.10;83.90;;;;;;6156739;23;20001;-88
2022/09/03 06:04:57;;;;;;;80.85;29.67;;;20.10;83.60;;;;;;6040425;23;20003;-92
2022/09/03 06:11:05;;;;;;;67.65;25.70;;;20.10;83.20;;;;;;5957906;24;20008;-91
2022/09/03 06:13:32;;;;;;;63.90;25.60;;;20.10;82.80;;;;;;6015074;23;20004;-92
2022/09/03 06:16:09;;;;;;;62.78;26.50;;;20.10;82.90;;;;;;6159062;23;20010;-85
2022/09/03 06:18:35;;;;;;;65.57;24.42;;;20.00;82.80;;;;;;6158053;23;20020;-83
2022/09/03 06:21:08;;;;;;;61.38;25.33;;;19.90;82.90;;;;;;6159016;23;19997;-86
2022/09/03 06:23:37;;;;;;;57.83;24.55;;;20.00;83.10;;;;;;6156671;23;20509;-86
2022/09/03 06:26:19;;;;;;;59.78;24.52;;;20.00;82.90;;;;;;6161141;23;20065;-90
2022/09/03 06:28:47;;;;;;;56.38;22.90;;;20.00;83.40;;;;;;6157625;23;20393;-88
2022/09/03 06:31:15;;;;;;;57.97;23.52;;;20.00;83.10;;;;;;6157154;23;20025;-91
2022/09/03 06:33:41;;;;;;;55.22;23.23;;;20.10;83.20;;;;;;6158673;23;20009;-88
2022/09/03 06:36:09;;;;;;;61.88;23.98;;;20.10;83.30;;;;;;6158677;23;20033;-89
2022/09/03 06:38:36;;;;;;;60.75;24.95;;;20.10;82.90;;;;;;6158182;23;20009;-82
2022/09/03 06:41:04;;;;;;;70.50;26.67;;;20.00;83.00;;;;;;6157895;23;20013;-83
2022/09/03 06:43:34;;;;;;;73.25;28.48;;;20.00;82.90;;;;;;6158383;23;20032;-87
2022/09/03 06:46:08;;;;;;;82.43;31.30;;;19.90;82.20;;;;;;6156117;23;20005;-87
2022/09/03 06:48:35;;;;;;;80.78;29.98;;;19.90;82.40;;;;;;6155588;23;20006;-86
2022/09/03 06:51:08;;;;;;;82.88;30.35;;;19.90;82.40;;;;;;6155652;23;20096;-86
2022/09/03 06:53:39;;;;;;;83.35;30.20;;;20.00;82.60;;;;;;6166256;23;20013;-87
2022/09/03 06:56:08;;;;;;;86.53;32.70;;;20.00;82.20;;;;;;6188203;23;20041;-86
2022/09/03 06:58:41;;;;;;;84.75;30.85;;;20.00;82.30;;;;;;6188241;23;20097;-85
2022/09/03 07:01:11;;;;;;;89.47;32.03;;;20.00;82.10;;;;;;6159679;23;20061;-86
2022/09/03 07:03:38;;;;;;;;;;;20.10;82.20;;;;;;6160124;23;20020;-85
2022/09/03 07:06:08;;;;;;;84.13;29.83;;;20.20;82.40;;;;;;6160869;23;19907;-87
2022/09/03 07:08:34;;;;;;;83.13;30.88;;;20.20;82.40;;;;;;6159718;23;20086;-86
2022/09/03 07:11:07;;;;;;;87.32;32.70;;;20.20;81.70;;;;;;6186932;23;20053;-86
2022/09/03 07:13:41;;;;;;;98.35;32.67;;;20.20;81.70;;;;;;6186466;23;20077;-89
2022/09/03 07:16:10;;;;;;;89.03;32.67;;;20.30;81.50;;;;;;6187430;23;20005;-87
2022/09/03 07:18:36;;;;;;;87.97;32.95;;;20.30;81.30;;;;;;6180539;23;20002;-88
2022/09/03 07:21:05;;;;;;;95.13;33.35;;;20.40;81.10;;;;;;6159655;23;20009;-87
2022/09/03 07:23:31;;;;;;;77.00;31.77;;;20.40;81.10;;;;;;6161318;23;20012;-90
2022/09/03 07:26:00;;;;;;;78.85;31.52;;;20.40;80.90;;;;;;6160325;23;20009;-87
2022/09/03 07:28:27;;;;;;;67.88;29.02;;;20.50;81.20;;;;;;6186113;23;20004;-86
2022/09/03 07:30:54;;;;;;;72.28;29.25;;;20.50;81.00;;;;;;6157292;23;20556;-87
2022/09/03 07:33:20;;;;;;;76.03;30.60;;;20.50;81.00;;;;;;6158464;23;20016;-85
2022/09/03 07:35:46;;;;;;;78.20;31.95;;;20.60;81.40;;;;;;6185085;23;20346;-87
2022/09/03 07:38:18;;;;;;;76.78;30.60;;;20.80;81.10;;;;;;6184648;23;20001;-86
2022/09/03 07:40:45;;;;;;;66.40;28.33;;;20.90;80.30;;;;;;6158625;23;20012;-85
2022/09/03 07:43:12;;;;;;;69.72;28.88;;;21.20;80.40;;;;;;6159977;23;20009;-85
2022/09/03 07:45:38;;;;;;;71.30;30.77;;;21.40;79.80;;;;;;6186539;23;20077;-85
2022/09/03 07:48:06;;;;;;;73.18;27.73;;;21.40;79.70;;;;;;6161360;23;20002;-85
2022/09/03 07:50:39;;;;;;;86.28;30.60;;;21.40;79.10;;;;;;6187772;23;20055;-87
2022/09/03 07:53:04;;;;;;;71.20;28.90;;;21.50;78.60;;;;;;6160775;23;20058;-88
2022/09/03 07:55:30;;;;;;;65.18;27.15;;;21.50;78.40;;;;;;6162087;23;20005;-88
2022/09/03 07:57:57;;;;;;;64.97;27.02;;;21.70;78.50;;;;;;6160879;23;20045;-86
2022/09/03 08:00:23;;;;;;;65.03;29.73;;;21.70;78.40;;;;;;6161325;23;20021;-89
2022/09/03 08:02:50;;;;;;;65.45;27.42;;;21.60;78.30;;;;;;6188813;23;20001;-88
2022/09/03 08:05:19;;;;;;;68.88;27.95;;;21.50;78.90;;;;;;6188104;23;20461;-87
2022/09/03 08:07:45;;;;;;;65.70;30.05;;;21.40;78.80;;;;;;6161214;23;20009;-88
2022/09/03 08:10:10;;;;;;;59.45;27.42;;;21.30;78.30;;;;;;6161831;23;20091;-88
2022/09/03 08:12:36;;;;;;;54.55;27.80;;;21.30;79.00;;;;;;6186854;23;20402;-88
2022/09/03 08:15:01;;;;;;;59.65;27.40;;;21.50;79.10;;;;;;6161532;23;20020;-87
2022/09/03 08:17:27;;;;;;;54.55;25.98;;;21.60;78.90;;;;;;6161946;23;20459;-88
2022/09/03 08:19:53;;;;;;;56.92;26.60;;;21.60;78.10;;;;;;6161358;23;20331;-88
2022/09/03 08:22:19;;;;;;;57.97;25.98;;;21.40;78.80;;;;;;6160801;23;20575;-87
2022/09/03 08:24:45;;;;;;;56.17;24.83;;;21.30;78.30;;;;;;6188263;23;20040;-88
2022/09/03 08:27:10;;;;;;;50.00;24.00;;;21.30;78.40;;;;;;6188060;23;20001;-87
2022/09/03 08:29:36;;;;;;;50.78;23.58;;;21.40;78.30;;;;;;6187753;23;20011;-88
2022/09/03 08:32:03;;;;;;;51.72;24.20;;;21.50;78.20;;;;;;6161488;23;20009;-86
2022/09/03 08:34:28;;;;;;;55.40;25.23;;;21.30;78.00;;;;;;6160899;23;20009;-87
2022/09/03 08:36:54;;;;;;;53.03;23.90;;;21.30;78.00;;;;;;6171225;23;20005;-85
2022/09/03 08:39:20;;;;;;;48.30;24.08;;;21.30;77.80;;;;;;6182538;23;20016;-85
2022/09/03 08:42:19;;;;;;;45.90;22.95;;;21.40;77.10;;;;;;6158188;23;20005;-87
2022/09/03 08:44:47;;;;;;;40.60;20.83;;;21.50;77.30;;;;;;6184734;23;20005;-87
2022/09/03 08:47:33;;;;;;;45.38;24.48;;;21.70;77.00;;;;;;6157771;23;20525;-85
2022/09/03 08:50:18;;;;;;;44.17;22.15;;;21.70;77.40;;;;;;6185129;23;20529;-87
2022/09/03 08:53:12;;;;;;;38.00;20.77;;;21.80;76.60;;;;;;6158137;23;20013;-88
2022/09/03 08:55:52;;;;;;;40.25;21.90;;;22.10;76.00;;;;;;6158710;23;20151;-86
2022/09/03 08:58:19;;;;;;;41.33;21.90;;;22.20;75.50;;;;;;6157751;23;20013;-87
2022/09/03 09:01:00;;;;;;;41.03;21.55;;;22.20;75.00;;;;;;6158061;23;20005;-89
2022/09/03 09:03:29;;;;;;;39.60;22.10;;;22.30;74.70;;;;;;6187853;23;20005;-89
2022/09/03 09:06:30;;;;;;;35.83;21.23;;;22.40;74.40;;;;;;6189872;23;20004;-89
2022/09/03 09:09:34;;;;;;;38.88;20.60;;;22.40;74.30;;;;;;6163048;23;20083;-89
2022/09/03 09:12:18;;;;;;;34.97;19.08;;;22.10;74.90;;;;;;6188695;23;20000;-91
2022/09/03 09:14:55;;;;;;;37.47;20.52;;;22.20;75.00;;;;;;6188521;23;20005;-88
2022/09/03 09:17:59;;;;;;;38.58;20.20;;;21.80;75.30;;;;;;6160138;23;20009;-91
2022/09/03 09:20:49;;;;;;;37.75;20.45;;;21.80;75.70;;;;;;6162565;23;20005;-93
2022/09/03 09:23:19;;;;;;;35.95;19.52;;;21.70;74.40;;;;;;6160764;23;20033;-87
2022/09/03 09:25:49;;;;;;;36.25;19.08;;;21.70;74.40;;;;;;6146372;23;20012;-90
2022/09/03 09:28:22;;;;;;;39.10;20.98;;;21.50;74.40;;;;;;6161518;23;20036;-83
2022/09/03 09:30:51;;;;;;;33.17;20.70;;;21.70;75.70;;;;;;6160731;23;20059;-92
2022/09/03 09:33:19;;;;;;;37.47;20.90;;;21.60;75.10;;;;;;6162052;23;20415;-92
2022/09/03 09:35:45;;;;;;;33.17;17.95;;;21.80;74.90;;;;;;6161795;23;20032;-83
2022/09/03 09:38:11;;;;;;;26.42;15.48;;;22.30;72.90;;;;;;6188782;23;20001;-90
2022/09/03 09:40:40;;;;;;;25.20;16.15;;;22.50;71.60;;;;;;6161161;23;20002;-84
2022/09/03 09:43:27;;;;;;;27.00;15.73;;;22.30;73.00;;;;;;6161800;23;20001;-88
2022/09/03 09:45:53;;;;;;;21.50;14.48;;;23.00;71.60;;;;;;6188953;23;19998;-82
2022/09/03 09:48:30;;;;;;;24.65;13.32;;;23.40;69.20;;;;;;6162527;23;20032;-90
2022/09/03 09:51:33;;;;;;;23.23;13.68;;;23.40;69.10;;;;;;6163995;23;20080;-89
2022/09/03 09:54:13;;;;;;;19.20;13.07;;;23.80;67.80;;;;;;6163592;23;20067;-93
2022/09/03 09:56:41;;;;;;;;;;;23.80;68.60;;;;;;6164886;23;20001;-93
2022/09/03 09:59:09;;;;;;;16.55;11.13;;;23.50;68.50;;;;;;6165083;23;19908;-93
2022/09/03 10:01:40;;;;;;;16.80;11.40;;;24.00;67.70;;;;;;6164614;23;20037;-92
2022/09/03 10:04:12;;;;;;;19.38;12.18;;;24.30;67.10;;;;;;6163952;23;20008;-90
2022/09/03 10:06:55;;;;;;;16.77;10.85;;;24.30;67.50;;;;;;6160306;23;20008;-91
2022/09/03 10:09:27;;;;;;;14.68;9.52;;;25.10;63.40;;;;;;6162653;23;20009;-89
2022/09/03 10:12:05;;;;;;;16.13;10.25;;;25.30;63.20;;;;;;6161767;23;20009;-89
2022/09/03 10:15:04;;;;;;;15.10;11.05;;;25.30;63.10;;;;;;6162488;23;20060;-85
2022/09/03 10:17:56;;;;;;;18.15;11.02;;;24.80;63.40;;;;;;6058809;23;20016;-87
2022/09/03 10:21:03;;;;;;;16.88;11.45;;;24.90;63.90;;;;;;6160697;23;20009;-89
2022/09/03 10:23:40;;;;;;;17.27;11.00;;;24.50;64.60;;;;;;6155712;23;20012;-87
2022/09/03 10:26:12;;;;;;;15.25;10.18;;;24.20;65.80;;;;;;6185631;23;20051;-85
2022/09/03 10:28:42;;;;;;;13.55;8.93;;;23.80;65.20;;;;;;6160512;23;20405;-89
2022/09/03 10:31:17;;;;;;;13.75;9.10;;;23.60;66.10;;;;;;6189231;23;20004;-90
2022/09/03 10:33:59;;;;;;;13.52;8.52;;;23.40;66.20;;;;;;6155161;23;20720;-85
2022/09/03 10:37:01;;;;;;;14.65;7.85;;;23.30;67.00;;;;;;6186317;23;20167;-90
2022/09/03 10:39:57;;;;;;;13.82;7.53;;;23.40;66.20;;;;;;6161579;23;20129;-84
2022/09/03 10:43:03;;;;;;;12.82;7.32;;;23.30;65.70;;;;;;6192464;23;20001;-92
2022/09/03 10:45:38;;;;;;;10.20;7.05;;;23.30;65.90;;;;;;6162594;23;20029;-84
2022/09/03 10:48:29;;;;;;;11.18;6.88;;;23.30;65.40;;;;;;6156439;23;20574;-87
2022/09/03 10:51:04;;;;;;;11.50;6.85;;;23.30;64.60;;;;;;6183785;23;20051;-84
2022/09/03 10:53:39;;;;;;;8.05;6.05;;;23.30;64.70;;;;;;6161744;23;20650;-85
2022/09/03 10:56:12;;;;;;;13.38;6.55;;;23.30;64.50;;;;;;6181927;23;20067;-92
2022/09/03 10:59:27;;;;;;;9.85;6.03;;;23.30;65.30;;;;;;6158049;23;20023;-83
2022/09/03 11:02:04;;;;;;;9.40;5.40;;;23.30;64.30;;;;;;6157330;23;20413;-81
2022/09/03 11:04:30;;;;;;;8.88;5.78;;;23.60;64.90;;;;;;6156396;23;20033;-85
2022/09/03 11:07:06;;;;;;;8.48;5.72;;;23.80;63.80;;;;;;6182406;23;20008;-82
2022/09/03 11:09:45;;;;;;;10.43;6.15;;;23.80;62.60;;;;;;6161971;23;20414;-87
2022/09/03 11:12:26;;;;;;;9.63;5.88;;;23.80;62.90;;;;;;6181774;23;20016;-88
2022/09/03 11:15:24;;;;;;;9.05;6.03;;;23.90;63.50;;;;;;6162014;23;20016;-82
2022/09/03 11:18:24;;;;;;;6.22;5.07;;;23.90;61.90;;;;;;6176788;23;20055;-84
2022/09/03 11:20:51;;;;;;;;;;;24.10;62.80;;;;;;6145148;23;20040;-87
2022/09/03 11:23:18;;;;;;;7.53;4.03;;;24.20;62.70;;;;;;6188046;23;19900;-79
2022/09/03 11:25:56;;;;;;;4.68;3.88;;;24.30;59.80;;;;;;6188937;23;20345;-87
2022/09/03 11:28:33;;;;;;;5.53;3.58;;;24.30;59.40;;;;;;6187431;23;20012;-86
2022/09/03 11:31:23;;;;;;;9.25;4.50;;;24.30;59.30;;;;;;6162166;23;20009;-88
2022/09/03 11:34:05;;;;;;;6.25;3.35;;;24.30;59.60;;;;;;6160841;23;20480;-89
2022/09/03 11:36:34;;;;;;;9.32;4.25;;;24.40;59.10;;;;;;6161714;23;20497;-89
2022/09/03 11:39:11;;;;;;;8.07;3.90;;;24.30;57.30;;;;;;6162136;23;20009;-91
2022/09/03 11:41:38;;;;;;;10.85;6.25;;;24.20;58.30;;;;;;6188852;23;19997;-87
2022/09/03 11:44:18;;;;;;;6.75;3.85;;;24.30;58.60;;;;;;6160988;23;20067;-86
2022/09/03 11:46:57;;;;;;;12.32;5.35;;;24.40;57.90;;;;;;6161191;23;20088;-86
2022/09/03 11:49:32;;;;;;;6.47;3.65;;;24.40;56.80;;;;;;6187580;23;20009;-86
2022/09/03 11:52:09;;;;;;;11.10;4.72;;;24.30;56.70;;;;;;6161306;23;20028;-89
2022/09/03 11:54:45;;;;;;;10.30;4.57;;;24.30;56.00;;;;;;6155457;23;20024;-86
2022/09/03 11:57:20;;;;;;;10.90;4.95;;;24.30;56.80;;;;;;6155706;23;20519;-86
2022/09/03 11:59:46;;;;;;;9.98;6.45;;;24.50;56.30;;;;;;6156687;23;20013;-86
2022/09/03 12:02:26;;;;;;;9.48;4.82;;;24.60;56.20;;;;;;6156022;23;20144;-87
2022/09/03 12:05:18;;;;;;;8.55;3.92;;;24.70;56.30;;;;;;6154120;23;20013;-85
2022/09/03 12:08:08;;;;;;;7.80;3.85;;;24.50;54.90;;;;;;6156026;23;20009;-86
2022/09/03 12:10:40;;;;;;;5.18;2.92;;;24.70;55.20;;;;;;6148957;23;20508;-87
2022/09/03 12:13:28;;;;;;;8.55;6.38;;;24.70;54.60;;;;;;6152017;23;20609;-83
2022/09/03 12:16:29;;;;;;;9.90;3.83;;;24.60;54.80;;;;;;6154223;23;20016;-85
2022/09/03 12:19:08;;;;;;;4.53;2.75;;;24.60;52.90;;;;;;6155056;23;20009;-86
2022/09/03 12:21:39;;;;;;;4.63;3.30;;;24.50;53.20;;;;;;6153536;23;20102;-90
2022/09/03 12:24:10;;;;;;;7.20;4.10;;;24.40;55.00;;;;;;6155875;23;20056;-84
2022/09/03 12:26:40;;;;;;;5.55;3.72;;;24.50;56.30;;;;;;6158350;23;19997;-83
2022/09/03 12:29:19;;;;;;;6.18;3.85;;;24.60;56.00;;;;;;6146820;23;20133;-90
2022/09/03 12:31:47;;;;;;;7.93;4.38;;;24.50;56.60;;;;;;6154272;23;20398;-86
2022/09/03 12:34:19;;;;;;;8.43;4.00;;;24.50;56.70;;;;;;6155880;23;20071;-85
2022/09/03 12:36:48;;;;;;;4.57;3.50;;;24.80;56.00;;;;;;6151816;23;20163;-83
2022/09/03 12:39:25;;;;;;;6.70;2.85;;;24.90;55.90;;;;;;6155183;23;20016;-83
2022/09/03 12:42:02;;;;;;;6.00;3.13;;;24.80;52.50;;;;;;6156334;23;20001;-83
2022/09/03 12:44:40;;;;;;;4.53;3.15;;;24.70;51.50;;;;;;6155479;23;20037;-82
2022/09/03 12:47:08;;;;;;;10.07;3.17;;;24.60;52.80;;;;;;6158001;23;20005;-83
2022/09/03 12:49:36;;;;;;;5.10;2.80;;;24.80;53.00;;;;;;6156588;23;20037;-83
2022/09/03 12:52:08;;;;;;;6.60;3.00;;;25.10;53.10;;;;;;6158094;23;20046;-84
2022/09/03 12:54:39;;;;;;;5.15;2.72;;;25.20;51.70;;;;;;6155447;23;20025;-83
2022/09/03 12:57:05;;;;;;;5.57;1.92;;;25.30;52.00;;;;;;6156761;23;20009;-83
2022/09/03 12:59:36;;;;;;;5.45;2.65;;;25.50;49.10;;;;;;6155680;23;20017;-84
2022/09/03 13:02:12;;;;;;;4.65;2.13;;;25.50;48.70;;;;;;6155425;23;20327;-82
2022/09/03 13:04:40;;;;;;;5.45;2.10;;;25.40;48.20;;;;;;6156148;23;20461;-83
2022/09/03 13:07:32;;;;;;;4.55;1.88;;;25.20;48.70;;;;;;6156669;23;20002;-82
2022/09/03 13:10:03;;;;;;;3.75;2.20;;;25.30;49.20;;;;;;6153391;23;20009;-82
2022/09/03 13:12:41;;;;;;;3.60;2.08;;;25.40;48.90;;;;;;6158455;23;20006;-82
2022/09/03 13:15:11;;;;;;;6.95;2.30;;;25.40;49.70;;;;;;6158507;23;20020;-84